sensor_id;sensor_type;location;lat;lon;timestamp;P1;durP1;ratioP1;P2;durP2;ratioP2
57832;SDS011;43667;53.036;6.740;2023-02-25T00:01:59;35.03;;;4.85;;
57832;SDS011;43667;53.036;6.740;2023-02-25T00:04:26;36.85;;;4.35;;
57832;SDS011;43667;53.036;6.740;2023-02-25T00:06:52;32.88;;;4.40;;
57832;SDS011;43667;53.036;6.740;2023-02-25T00:09:18;34.30;;;4.88;;
57832;SDS011;43667;53.036;6.740;2023-02-25T00:11:43;39.35;;;4.82;;
57832;SDS011;43667;53.036;6.740;2023-02-25T00:14:09;33.60;;;4.78;;
57832;SDS011;43667;53.036;6.740;2023-02-25T00:16:34;42.33;;;5.65;;
57832;SDS011;43667;53.036;6.740;2023-02-25T00:19:00;38.20;;;5.55;;
57832;SDS011;43667;53.036;6.740;2023-02-25T00:21:28;33.88;;;4.65;;
57832;SDS011;43667;53.036;6.740;2023-02-25T00:23:53;45.53;;;6.40;;
57832;SDS011;43667;53.036;6.740;2023-02-25T00:26:20;44.80;;;6.30;;
57832;SDS011;43667;53.036;6.740;2023-02-25T00:28:47;34.60;;;5.20;;
57832;SDS011;43667;53.036;6.740;2023-02-25T00:31:14;44.05;;;5.13;;
57832;SDS011;43667;53.036;6.740;2023-02-25T00:33:42;32.42;;;5.57;;
57832;SDS011;43667;53.036;6.740;2023-02-25T00:36:08;45.47;;;5.90;;
57832;SDS011;43667;53.036;6.740;2023-02-25T00:38:42;36.45;;;5.20;;
57832;SDS011;43667;53.036;6.740;2023-02-25T00:41:12;54.67;;;7.07;;
57832;SDS011;43667;53.036;6.740;2023-02-25T00:43:40;45.30;;;5.85;;
57832;SDS011;43667;53.036;6.740;2023-02-25T00:46:08;42.78;;;5.82;;
57832;SDS011;43667;53.036;6.740;2023-02-25T00:48:34;41.13;;;5.32;;
57832;SDS011;43667;53.036;6.740;2023-02-25T00:51:04;39.70;;;5.22;;
57832;SDS011;43667;53.036;6.740;2023-02-25T00:53:31;36.70;;;5.25;;
57832;SDS011;43667;53.036;6.740;2023-02-25T00:56:00;36.45;;;5.20;;
57832;SDS011;43667;53.036;6.740;2023-02-25T00:58:26;29.98;;;4.22;;
57832;SDS011;43667;53.036;6.740;2023-02-25T01:00:51;38.28;;;4.95;;
57832;SDS011;43667;53.036;6.740;2023-02-25T01:03:17;37.92;;;4.65;;
57832;SDS011;43667;53.036;6.740;2023-02-25T01:05:43;37.47;;;5.85;;
57832;SDS011;43667;53.036;6.740;2023-02-25T01:08:13;27.23;;;3.95;;
57832;SDS011;43667;53.036;6.740;2023-02-25T01:10:42;25.65;;;4.18;;
57832;SDS011;43667;53.036;6.740;2023-02-25T01:13:09;16.60;;;2.80;;
57832;SDS011;43667;53.036;6.740;2023-02-25T01:15:34;18.15;;;2.65;;
57832;SDS011;43667;53.036;6.740;2023-02-25T01:18:00;19.15;;;2.70;;
57832;SDS011;43667;53.036;6.740;2023-02-25T01:20:25;25.63;;;2.60;;
57832;SDS011;43667;53.036;6.740;2023-02-25T01:22:53;17.17;;;2.40;;
57832;SDS011;43667;53.036;6.740;2023-02-25T01:25:20;18.10;;;2.30;;
57832;SDS011;43667;53.036;6.740;2023-02-25T01:27:46;17.40;;;2.72;;
57832;SDS011;43667;53.036;6.740;2023-02-25T01:30:11;12.30;;;1.95;;
57832;SDS011;43667;53.036;6.740;2023-02-25T01:32:37;17.23;;;2.00;;
57832;SDS011;43667;53.036;6.740;2023-02-25T01:35:03;21.70;;;3.50;;
57832;SDS011;43667;53.036;6.740;2023-02-25T01:37:29;14.23;;;2.05;;
57832;SDS011;43667;53.036;6.740;2023-02-25T01:39:54;18.40;;;2.45;;
57832;SDS011;43667;53.036;6.740;2023-02-25T01:42:20;14.38;;;2.38;;
57832;SDS011;43667;53.036;6.740;2023-02-25T01:47:59;18.13;;;2.00;;
57832;SDS011;43667;53.036;6.740;2023-02-25T01:50:30;16.48;;;1.73;;
57832;SDS011;43667;53.036;6.740;2023-02-25T01:53:01;18.48;;;2.13;;
57832;SDS011;43667;53.036;6.740;2023-02-25T01:55:28;11.13;;;1.98;;
57832;SDS011;43667;53.036;6.740;2023-02-25T01:57:55;16.00;;;2.10;;
57832;SDS011;43667;53.036;6.740;2023-02-25T02:00:22;17.27;;;2.22;;
57832;SDS011;43667;53.036;6.740;2023-02-25T02:02:51;18.33;;;2.78;;
57832;SDS011;43667;53.036;6.740;2023-02-25T02:05:17;18.30;;;2.42;;
57832;SDS011;43667;53.036;6.740;2023-02-25T02:07:43;14.50;;;2.03;;
57832;SDS011;43667;53.036;6.740;2023-02-25T02:10:09;18.85;;;2.60;;
57832;SDS011;43667;53.036;6.740;2023-02-25T02:12:36;22.13;;;3.65;;
57832;SDS011;43667;53.036;6.740;2023-02-25T02:15:07;27.77;;;3.47;;
57832;SDS011;43667;53.036;6.740;2023-02-25T02:17:37;25.17;;;3.60;;
57832;SDS011;43667;53.036;6.740;2023-02-25T02:31:11;28.25;;;3.65;;
57832;SDS011;43667;53.036;6.740;2023-02-25T02:46:05;32.42;;;4.30;;
57832;SDS011;43667;53.036;6.740;2023-02-25T02:52:05;28.55;;;4.05;;
57832;SDS011;43667;53.036;6.740;2023-02-25T02:54:11;30.63;;;3.85;;
57832;SDS011;43667;53.036;6.740;2023-02-25T02:56:39;27.60;;;4.50;;
57832;SDS011;43667;53.036;6.740;2023-02-25T02:59:09;29.95;;;4.00;;
57832;SDS011;43667;53.036;6.740;2023-02-25T03:01:57;31.65;;;4.28;;
57832;SDS011;43667;53.036;6.740;2023-02-25T03:06:57;26.23;;;3.92;;
57832;SDS011;43667;53.036;6.740;2023-02-25T03:09:30;26.02;;;4.25;;
57832;SDS011;43667;53.036;6.740;2023-02-25T03:12:03;27.60;;;3.33;;
57832;SDS011;43667;53.036;6.740;2023-02-25T03:14:29;15.85;;;2.50;;
57832;SDS011;43667;53.036;6.740;2023-02-25T03:16:56;25.88;;;3.08;;
57832;SDS011;43667;53.036;6.740;2023-02-25T03:22:23;17.60;;;2.85;;
57832;SDS011;43667;53.036;6.740;2023-02-25T03:24:58;17.65;;;2.17;;
57832;SDS011;43667;53.036;6.740;2023-02-25T03:27:33;17.00;;;2.65;;
57832;SDS011;43667;53.036;6.740;2023-02-25T03:30:12;15.45;;;2.25;;
57832;SDS011;43667;53.036;6.740;2023-02-25T03:32:50;17.17;;;1.90;;
57832;SDS011;43667;53.036;6.740;2023-02-25T03:35:19;14.55;;;2.10;;
57832;SDS011;43667;53.036;6.740;2023-02-25T03:37:49;11.63;;;1.63;;
57832;SDS011;43667;53.036;6.740;2023-02-25T03:40:18;17.75;;;1.92;;
57832;SDS011;43667;53.036;6.740;2023-02-25T03:42:47;13.82;;;1.80;;
57832;SDS011;43667;53.036;6.740;2023-02-25T03:47:45;19.30;;;1.90;;
57832;SDS011;43667;53.036;6.740;2023-02-25T03:50:12;11.80;;;2.15;;
57832;SDS011;43667;53.036;6.740;2023-02-25T03:52:44;15.38;;;1.95;;
57832;SDS011;43667;53.036;6.740;2023-02-25T03:55:09;12.80;;;1.52;;
57832;SDS011;43667;53.036;6.740;2023-02-25T03:57:39;20.52;;;2.88;;
57832;SDS011;43667;53.036;6.740;2023-02-25T04:00:07;10.95;;;2.00;;
57832;SDS011;43667;53.036;6.740;2023-02-25T04:02:41;15.90;;;1.90;;
57832;SDS011;43667;53.036;6.740;2023-02-25T04:05:09;16.65;;;2.13;;
57832;SDS011;43667;53.036;6.740;2023-02-25T04:07:35;13.50;;;1.88;;
57832;SDS011;43667;53.036;6.740;2023-02-25T04:10:01;14.32;;;2.22;;
57832;SDS011;43667;53.036;6.740;2023-02-25T04:12:27;8.05;;;1.50;;
57832;SDS011;43667;53.036;6.740;2023-02-25T04:14:53;11.35;;;1.80;;
57832;SDS011;43667;53.036;6.740;2023-02-25T04:17:18;10.25;;;1.33;;
57832;SDS011;43667;53.036;6.740;2023-02-25T04:19:44;13.45;;;1.45;;
57832;SDS011;43667;53.036;6.740;2023-02-25T04:22:09;6.07;;;0.73;;
57832;SDS011;43667;53.036;6.740;2023-02-25T04:24:35;2.70;;;0.50;;
57832;SDS011;43667;53.036;6.740;2023-02-25T04:27:01;6.00;;;0.52;;
57832;SDS011;43667;53.036;6.740;2023-02-25T04:29:27;2.20;;;0.35;;
57832;SDS011;43667;53.036;6.740;2023-02-25T04:31:53;1.35;;;0.45;;
57832;SDS011;43667;53.036;6.740;2023-02-25T04:34:20;3.55;;;0.38;;
57832;SDS011;43667;53.036;6.740;2023-02-25T04:36:46;2.03;;;0.35;;
57832;SDS011;43667;53.036;6.740;2023-02-25T04:39:12;4.88;;;0.50;;
57832;SDS011;43667;53.036;6.740;2023-02-25T04:41:39;2.85;;;0.40;;
57832;SDS011;43667;53.036;6.740;2023-02-25T04:44:05;3.38;;;0.60;;
57832;SDS011;43667;53.036;6.740;2023-02-25T04:46:32;2.17;;;0.40;;
57832;SDS011;43667;53.036;6.740;2023-02-25T04:48:59;3.22;;;0.30;;
57832;SDS011;43667;53.036;6.740;2023-02-25T04:51:25;1.30;;;0.20;;
57832;SDS011;43667;53.036;6.740;2023-02-25T04:53:51;2.97;;;0.28;;
57832;SDS011;43667;53.036;6.740;2023-02-25T04:56:16;3.03;;;0.50;;
57832;SDS011;43667;53.036;6.740;2023-02-25T04:58:42;4.45;;;0.43;;
57832;SDS011;43667;53.036;6.740;2023-02-25T05:01:09;2.17;;;0.30;;
57832;SDS011;43667;53.036;6.740;2023-02-25T05:03:35;4.70;;;0.57;;
57832;SDS011;43667;53.036;6.740;2023-02-25T05:06:01;1.77;;;0.43;;
57832;SDS011;43667;53.036;6.740;2023-02-25T05:08:27;2.72;;;0.40;;
57832;SDS011;43667;53.036;6.740;2023-02-25T05:10:53;1.98;;;0.50;;
57832;SDS011;43667;53.036;6.740;2023-02-25T05:13:19;2.05;;;0.50;;
57832;SDS011;43667;53.036;6.740;2023-02-25T05:15:46;2.33;;;0.50;;
57832;SDS011;43667;53.036;6.740;2023-02-25T05:18:11;3.53;;;0.60;;
57832;SDS011;43667;53.036;6.740;2023-02-25T05:20:41;5.50;;;0.60;;
57832;SDS011;43667;53.036;6.740;2023-02-25T05:23:10;6.45;;;0.60;;
57832;SDS011;43667;53.036;6.740;2023-02-25T05:25:37;4.53;;;0.68;;
57832;SDS011;43667;53.036;6.740;2023-02-25T05:28:05;3.58;;;0.70;;
57832;SDS011;43667;53.036;6.740;2023-02-25T05:30:31;6.20;;;0.63;;
57832;SDS011;43667;53.036;6.740;2023-02-25T05:32:57;4.78;;;0.70;;
57832;SDS011;43667;53.036;6.740;2023-02-25T05:35:23;3.50;;;0.40;;
57832;SDS011;43667;53.036;6.740;2023-02-25T05:37:48;6.65;;;0.60;;
57832;SDS011;43667;53.036;6.740;2023-02-25T05:40:14;5.00;;;0.80;;
57832;SDS011;43667;53.036;6.740;2023-02-25T05:42:39;5.63;;;0.70;;
57832;SDS011;43667;53.036;6.740;2023-02-25T05:45:06;2.25;;;0.65;;
57832;SDS011;43667;53.036;6.740;2023-02-25T05:47:33;6.70;;;1.00;;
57832;SDS011;43667;53.036;6.740;2023-02-25T05:49:59;10.15;;;1.27;;
57832;SDS011;43667;53.036;6.740;2023-02-25T05:52:25;7.38;;;0.85;;
57832;SDS011;43667;53.036;6.740;2023-02-25T05:54:51;7.43;;;1.05;;
57832;SDS011;43667;53.036;6.740;2023-02-25T05:57:16;10.27;;;1.75;;
57832;SDS011;43667;53.036;6.740;2023-02-25T05:59:42;12.38;;;1.40;;
57832;SDS011;43667;53.036;6.740;2023-02-25T06:02:08;10.02;;;1.20;;
57832;SDS011;43667;53.036;6.740;2023-02-25T06:04:33;12.88;;;1.10;;
57832;SDS011;43667;53.036;6.740;2023-02-25T06:06:59;7.93;;;1.35;;
57832;SDS011;43667;53.036;6.740;2023-02-25T06:09:27;14.80;;;2.38;;
57832;SDS011;43667;53.036;6.740;2023-02-25T06:11:53;9.30;;;1.60;;
57832;SDS011;43667;53.036;6.740;2023-02-25T06:14:19;8.05;;;1.70;;
57832;SDS011;43667;53.036;6.740;2023-02-25T06:16:44;7.43;;;0.80;;
57832;SDS011;43667;53.036;6.740;2023-02-25T06:19:10;7.20;;;1.30;;
57832;SDS011;43667;53.036;6.740;2023-02-25T06:21:36;6.13;;;0.70;;
57832;SDS011;43667;53.036;6.740;2023-02-25T06:24:02;5.38;;;0.80;;
57832;SDS011;43667;53.036;6.740;2023-02-25T06:26:28;6.22;;;0.90;;
57832;SDS011;43667;53.036;6.740;2023-02-25T06:28:54;9.15;;;1.10;;
57832;SDS011;43667;53.036;6.740;2023-02-25T06:31:21;5.53;;;0.55;;
57832;SDS011;43667;53.036;6.740;2023-02-25T06:33:48;10.07;;;1.25;;
57832;SDS011;43667;53.036;6.740;2023-02-25T06:36:18;8.68;;;1.27;;
57832;SDS011;43667;53.036;6.740;2023-02-25T06:38:45;5.65;;;0.95;;
57832;SDS011;43667;53.036;6.740;2023-02-25T06:41:15;8.15;;;1.27;;
57832;SDS011;43667;53.036;6.740;2023-02-25T06:43:43;11.25;;;1.70;;
57832;SDS011;43667;53.036;6.740;2023-02-25T06:46:11;6.63;;;1.20;;
57832;SDS011;43667;53.036;6.740;2023-02-25T06:48:38;4.57;;;0.90;;
57832;SDS011;43667;53.036;6.740;2023-02-25T06:51:04;4.68;;;0.80;;
57832;SDS011;43667;53.036;6.740;2023-02-25T06:53:38;6.32;;;0.80;;
57832;SDS011;43667;53.036;6.740;2023-02-25T06:56:05;4.07;;;0.60;;
57832;SDS011;43667;53.036;6.740;2023-02-25T06:58:32;3.13;;;0.50;;
57832;SDS011;43667;53.036;6.740;2023-02-25T07:00:58;4.85;;;0.50;;
57832;SDS011;43667;53.036;6.740;2023-02-25T07:03:24;5.43;;;0.93;;
57832;SDS011;43667;53.036;6.740;2023-02-25T07:05:50;4.82;;;0.50;;
57832;SDS011;43667;53.036;6.740;2023-02-25T07:08:16;3.05;;;0.50;;
57832;SDS011;43667;53.036;6.740;2023-02-25T07:10:42;6.53;;;0.80;;
57832;SDS011;43667;53.036;6.740;2023-02-25T07:13:08;5.88;;;0.70;;
57832;SDS011;43667;53.036;6.740;2023-02-25T07:15:34;4.78;;;1.27;;
57832;SDS011;43667;53.036;6.740;2023-02-25T07:18:00;4.00;;;0.63;;
57832;SDS011;43667;53.036;6.740;2023-02-25T07:20:26;4.38;;;0.60;;
57832;SDS011;43667;53.036;6.740;2023-02-25T07:22:51;3.45;;;0.98;;
57832;SDS011;43667;53.036;6.740;2023-02-25T07:25:17;4.82;;;0.82;;
57832;SDS011;43667;53.036;6.740;2023-02-25T07:27:43;5.90;;;0.90;;
57832;SDS011;43667;53.036;6.740;2023-02-25T07:30:09;7.78;;;1.00;;
57832;SDS011;43667;53.036;6.740;2023-02-25T07:32:36;4.57;;;0.80;;
57832;SDS011;43667;53.036;6.740;2023-02-25T07:35:02;7.82;;;1.20;;
57832;SDS011;43667;53.036;6.740;2023-02-25T07:37:28;10.13;;;1.70;;
57832;SDS011;43667;53.036;6.740;2023-02-25T07:39:54;5.47;;;1.05;;
57832;SDS011;43667;53.036;6.740;2023-02-25T07:42:23;16.20;;;1.10;;
57832;SDS011;43667;53.036;6.740;2023-02-25T07:44:52;8.60;;;1.30;;
57832;SDS011;43667;53.036;6.740;2023-02-25T07:47:18;5.70;;;1.10;;
57832;SDS011;43667;53.036;6.740;2023-02-25T07:49:44;13.65;;;1.42;;
57832;SDS011;43667;53.036;6.740;2023-02-25T07:52:10;10.25;;;1.58;;
57832;SDS011;43667;53.036;6.740;2023-02-25T07:54:36;9.73;;;1.63;;
57832;SDS011;43667;53.036;6.740;2023-02-25T07:57:01;7.88;;;1.30;;
57832;SDS011;43667;53.036;6.740;2023-02-25T07:59:27;14.55;;;1.38;;
57832;SDS011;43667;53.036;6.740;2023-02-25T08:01:53;10.23;;;1.75;;
57832;SDS011;43667;53.036;6.740;2023-02-25T08:04:18;12.73;;;1.75;;
57832;SDS011;43667;53.036;6.740;2023-02-25T08:06:44;8.95;;;1.80;;
57832;SDS011;43667;53.036;6.740;2023-02-25T08:09:11;10.30;;;1.60;;
57832;SDS011;43667;53.036;6.740;2023-02-25T08:11:37;12.45;;;1.63;;
57832;SDS011;43667;53.036;6.740;2023-02-25T08:14:04;14.50;;;1.80;;
57832;SDS011;43667;53.036;6.740;2023-02-25T08:16:29;9.85;;;1.90;;
57832;SDS011;43667;53.036;6.740;2023-02-25T08:18:56;13.85;;;2.00;;
57832;SDS011;43667;53.036;6.740;2023-02-25T08:21:22;9.82;;;1.58;;
57832;SDS011;43667;53.036;6.740;2023-02-25T08:23:50;17.23;;;1.85;;
57832;SDS011;43667;53.036;6.740;2023-02-25T08:26:17;10.23;;;1.85;;
57832;SDS011;43667;53.036;6.740;2023-02-25T08:28:44;8.30;;;1.98;;
57832;SDS011;43667;53.036;6.740;2023-02-25T08:31:10;11.63;;;1.80;;
57832;SDS011;43667;53.036;6.740;2023-02-25T08:33:37;12.32;;;2.08;;
57832;SDS011;43667;53.036;6.740;2023-02-25T08:36:05;10.95;;;1.85;;
57832;SDS011;43667;53.036;6.740;2023-02-25T08:38:35;11.82;;;1.80;;
57832;SDS011;43667;53.036;6.740;2023-02-25T08:41:02;14.35;;;2.00;;
57832;SDS011;43667;53.036;6.740;2023-02-25T08:43:28;8.98;;;1.55;;
57832;SDS011;43667;53.036;6.740;2023-02-25T08:45:54;12.32;;;1.83;;
57832;SDS011;43667;53.036;6.740;2023-02-25T08:48:20;9.45;;;1.63;;
57832;SDS011;43667;53.036;6.740;2023-02-25T08:50:46;12.80;;;1.25;;
57832;SDS011;43667;53.036;6.740;2023-02-25T08:53:12;10.65;;;1.67;;
57832;SDS011;43667;53.036;6.740;2023-02-25T08:55:37;8.77;;;1.23;;
57832;SDS011;43667;53.036;6.740;2023-02-25T08:58:04;10.40;;;1.33;;
57832;SDS011;43667;53.036;6.740;2023-02-25T09:00:30;6.25;;;1.63;;
57832;SDS011;43667;53.036;6.740;2023-02-25T09:02:55;10.45;;;1.52;;
57832;SDS011;43667;53.036;6.740;2023-02-25T09:05:21;7.15;;;1.45;;
57832;SDS011;43667;53.036;6.740;2023-02-25T09:07:48;7.82;;;1.48;;
57832;SDS011;43667;53.036;6.740;2023-02-25T09:10:14;7.13;;;1.23;;
57832;SDS011;43667;53.036;6.740;2023-02-25T09:12:41;8.60;;;2.22;;
57832;SDS011;43667;53.036;6.740;2023-02-25T09:15:07;10.80;;;1.83;;
57832;SDS011;43667;53.036;6.740;2023-02-25T09:17:34;9.82;;;1.63;;
57832;SDS011;43667;53.036;6.740;2023-02-25T09:19:59;13.20;;;2.35;;
57832;SDS011;43667;53.036;6.740;2023-02-25T09:22:25;12.05;;;1.65;;
57832;SDS011;43667;53.036;6.740;2023-02-25T09:24:51;12.00;;;2.10;;
57832;SDS011;43667;53.036;6.740;2023-02-25T09:27:17;15.38;;;2.63;;
57832;SDS011;43667;53.036;6.740;2023-02-25T09:29:43;16.92;;;2.50;;
57832;SDS011;43667;53.036;6.740;2023-02-25T09:32:17;11.35;;;1.95;;
57832;SDS011;43667;53.036;6.740;2023-02-25T09:34:44;6.97;;;1.70;;
57832;SDS011;43667;53.036;6.740;2023-02-25T09:37:10;8.23;;;1.27;;
57832;SDS011;43667;53.036;6.740;2023-02-25T09:39:38;10.18;;;2.38;;
57832;SDS011;43667;53.036;6.740;2023-02-25T09:42:07;10.63;;;1.70;;
57832;SDS011;43667;53.036;6.740;2023-02-25T09:44:39;6.55;;;2.17;;
57832;SDS011;43667;53.036;6.740;2023-02-25T09:49:55;7.60;;;1.50;;
57832;SDS011;43667;53.036;6.740;2023-02-25T09:55:56;10.02;;;1.52;;
57832;SDS011;43667;53.036;6.740;2023-02-25T10:00:57;5.68;;;1.20;;
57832;SDS011;43667;53.036;6.740;2023-02-25T10:11:49;7.07;;;1.17;;
57832;SDS011;43667;53.036;6.740;2023-02-25T10:17:16;10.80;;;1.58;;
57832;SDS011;43667;53.036;6.740;2023-02-25T10:20:18;7.68;;;1.52;;
57832;SDS011;43667;53.036;6.740;2023-02-25T10:23:06;8.50;;;1.60;;
57832;SDS011;43667;53.036;6.740;2023-02-25T10:25:59;7.30;;;0.88;;
57832;SDS011;43667;53.036;6.740;2023-02-25T10:28:31;7.65;;;1.00;;
57832;SDS011;43667;53.036;6.740;2023-02-25T10:31:03;6.53;;;1.25;;
57832;SDS011;43667;53.036;6.740;2023-02-25T10:33:34;6.75;;;1.23;;
57832;SDS011;43667;53.036;6.740;2023-02-25T10:38:37;9.73;;;1.33;;
57832;SDS011;43667;53.036;6.740;2023-02-25T10:41:05;6.07;;;1.00;;
57832;SDS011;43667;53.036;6.740;2023-02-25T10:43:32;7.72;;;1.00;;
57832;SDS011;43667;53.036;6.740;2023-02-25T10:46:14;5.90;;;0.68;;
57832;SDS011;43667;53.036;6.740;2023-02-25T10:49:19;8.45;;;1.20;;
57832;SDS011;43667;53.036;6.740;2023-02-25T10:51:56;4.00;;;0.80;;
57832;SDS011;43667;53.036;6.740;2023-02-25T10:54:51;2.58;;;0.90;;
57832;SDS011;43667;53.036;6.740;2023-02-25T10:57:25;9.43;;;1.25;;
57832;SDS011;43667;53.036;6.740;2023-02-25T10:59:59;4.78;;;1.00;;
57832;SDS011;43667;53.036;6.740;2023-02-25T11:02:30;6.15;;;1.17;;
57832;SDS011;43667;53.036;6.740;2023-02-25T11:05:01;7.85;;;1.13;;
57832;SDS011;43667;53.036;6.740;2023-02-25T11:07:36;11.18;;;1.70;;
57832;SDS011;43667;53.036;6.740;2023-02-25T11:10:08;6.18;;;1.08;;
57832;SDS011;43667;53.036;6.740;2023-02-25T11:17:49;5.85;;;1.27;;
57832;SDS011;43667;53.036;6.740;2023-02-25T11:20:26;8.70;;;1.45;;
57832;SDS011;43667;53.036;6.740;2023-02-25T11:22:53;10.02;;;1.00;;
57832;SDS011;43667;53.036;6.740;2023-02-25T11:25:40;7.75;;;1.08;;
57832;SDS011;43667;53.036;6.740;2023-02-25T11:28:15;6.43;;;0.80;;
57832;SDS011;43667;53.036;6.740;2023-02-25T11:30:47;4.25;;;0.88;;
57832;SDS011;43667;53.036;6.740;2023-02-25T11:33:32;8.57;;;1.35;;
57832;SDS011;43667;53.036;6.740;2023-02-25T11:36:01;7.20;;;1.02;;
57832;SDS011;43667;53.036;6.740;2023-02-25T11:40:57;5.82;;;1.00;;
57832;SDS011;43667;53.036;6.740;2023-02-25T11:43:24;5.28;;;1.10;;
57832;SDS011;43667;53.036;6.740;2023-02-25T11:45:53;5.82;;;0.88;;
57832;SDS011;43667;53.036;6.740;2023-02-25T11:48:26;4.78;;;0.93;;
57832;SDS011;43667;53.036;6.740;2023-02-25T11:50:59;7.05;;;1.13;;
57832;SDS011;43667;53.036;6.740;2023-02-25T12:04:33;6.53;;;1.10;;
57832;SDS011;43667;53.036;6.740;2023-02-25T12:07:25;4.10;;;0.75;;
57832;SDS011;43667;53.036;6.740;2023-02-25T12:13:02;6.28;;;1.25;;
57832;SDS011;43667;53.036;6.740;2023-02-25T12:24:17;7.07;;;1.13;;
57832;SDS011;43667;53.036;6.740;2023-02-25T12:27:15;11.45;;;0.77;;
57832;SDS011;43667;53.036;6.740;2023-02-25T12:41:34;9.05;;;1.25;;
57832;SDS011;43667;53.036;6.740;2023-02-25T12:49:57;7.85;;;1.15;;
57832;SDS011;43667;53.036;6.740;2023-02-25T12:52:41;5.78;;;1.17;;
57832;SDS011;43667;53.036;6.740;2023-02-25T13:00:50;6.53;;;1.10;;
57832;SDS011;43667;53.036;6.740;2023-02-25T13:14:31;6.53;;;1.25;;
57832;SDS011;43667;53.036;6.740;2023-02-25T13:20:19;5.90;;;1.20;;
57832;SDS011;43667;53.036;6.740;2023-02-25T13:31:04;7.03;;;1.17;;
57832;SDS011;43667;53.036;6.740;2023-02-25T13:34:07;7.13;;;1.50;;
57832;SDS011;43667;53.036;6.740;2023-02-25T13:47:25;7.10;;;0.98;;
57832;SDS011;43667;53.036;6.740;2023-02-25T13:50:31;7.22;;;1.27;;
57832;SDS011;43667;53.036;6.740;2023-02-25T13:59:21;9.52;;;1.60;;
57832;SDS011;43667;53.036;6.740;2023-02-25T14:04:30;7.10;;;1.10;;
57832;SDS011;43667;53.036;6.740;2023-02-25T14:09:59;7.72;;;1.20;;
57832;SDS011;43667;53.036;6.740;2023-02-25T14:15:45;4.57;;;1.00;;
57832;SDS011;43667;53.036;6.740;2023-02-25T14:18:21;3.08;;;0.93;;
57832;SDS011;43667;53.036;6.740;2023-02-25T14:31:40;8.27;;;1.33;;
57832;SDS011;43667;53.036;6.740;2023-02-25T14:34:14;7.63;;;1.00;;
57832;SDS011;43667;53.036;6.740;2023-02-25T14:48:27;8.95;;;2.05;;
57832;SDS011;43667;53.036;6.740;2023-02-25T14:51:18;5.55;;;1.58;;
57832;SDS011;43667;53.036;6.740;2023-02-25T14:57:02;9.50;;;1.55;;
57832;SDS011;43667;53.036;6.740;2023-02-25T15:00:02;10.23;;;1.25;;
57832;SDS011;43667;53.036;6.740;2023-02-25T15:08:30;4.63;;;0.95;;
57832;SDS011;43667;53.036;6.740;2023-02-25T15:11:12;3.17;;;0.88;;
57832;SDS011;43667;53.036;6.740;2023-02-25T15:16:39;7.70;;;0.90;;
57832;SDS011;43667;53.036;6.740;2023-02-25T15:19:25;4.88;;;1.25;;
57832;SDS011;43667;53.036;6.740;2023-02-25T15:24:45;10.75;;;1.20;;
57832;SDS011;43667;53.036;6.740;2023-02-25T15:30:05;3.40;;;0.88;;
57832;SDS011;43667;53.036;6.740;2023-02-25T15:42:44;6.80;;;1.45;;
57832;SDS011;43667;53.036;6.740;2023-02-25T15:53:06;11.50;;;1.48;;
57832;SDS011;43667;53.036;6.740;2023-02-25T15:55:35;6.47;;;1.02;;
57832;SDS011;43667;53.036;6.740;2023-02-25T16:00:48;9.38;;;1.17;;
57832;SDS011;43667;53.036;6.740;2023-02-25T16:11:27;11.10;;;1.20;;
57832;SDS011;43667;53.036;6.740;2023-02-25T16:13:54;10.65;;;1.58;;
57832;SDS011;43667;53.036;6.740;2023-02-25T16:16:21;8.57;;;1.48;;
57832;SDS011;43667;53.036;6.740;2023-02-25T16:18:48;5.63;;;1.30;;
57832;SDS011;43667;53.036;6.740;2023-02-25T16:21:28;7.40;;;1.80;;
57832;SDS011;43667;53.036;6.740;2023-02-25T16:24:07;12.45;;;1.45;;
57832;SDS011;43667;53.036;6.740;2023-02-25T16:35:08;5.70;;;1.15;;
57832;SDS011;43667;53.036;6.740;2023-02-25T16:37:41;7.43;;;1.27;;
57832;SDS011;43667;53.036;6.740;2023-02-25T16:40:28;8.70;;;1.52;;
57832;SDS011;43667;53.036;6.740;2023-02-25T16:42:59;10.90;;;1.88;;
57832;SDS011;43667;53.036;6.740;2023-02-25T16:45:30;8.50;;;1.45;;
57832;SDS011;43667;53.036;6.740;2023-02-25T16:48:01;5.93;;;1.67;;
57832;SDS011;43667;53.036;6.740;2023-02-25T16:50:30;9.55;;;1.23;;
57832;SDS011;43667;53.036;6.740;2023-02-25T16:52:58;7.72;;;1.40;;
57832;SDS011;43667;53.036;6.740;2023-02-25T16:55:27;7.75;;;1.80;;
57832;SDS011;43667;53.036;6.740;2023-02-25T16:58:00;8.43;;;1.27;;
57832;SDS011;43667;53.036;6.740;2023-02-25T17:00:30;9.45;;;1.42;;
57832;SDS011;43667;53.036;6.740;2023-02-25T17:02:58;10.25;;;1.70;;
57832;SDS011;43667;53.036;6.740;2023-02-25T17:05:35;11.25;;;1.52;;
57832;SDS011;43667;53.036;6.740;2023-02-25T17:08:08;8.10;;;1.30;;
57832;SDS011;43667;53.036;6.740;2023-02-25T17:10:47;8.32;;;2.03;;
57832;SDS011;43667;53.036;6.740;2023-02-25T17:13:26;7.85;;;1.52;;
57832;SDS011;43667;53.036;6.740;2023-02-25T17:15:55;4.72;;;0.77;;
57832;SDS011;43667;53.036;6.740;2023-02-25T17:18:24;8.50;;;2.75;;
57832;SDS011;43667;53.036;6.740;2023-02-25T17:21:05;7.70;;;0.90;;
57832;SDS011;43667;53.036;6.740;2023-02-25T17:26:05;6.55;;;1.08;;
57832;SDS011;43667;53.036;6.740;2023-02-25T17:28:31;7.72;;;1.10;;
57832;SDS011;43667;53.036;6.740;2023-02-25T17:36:18;7.38;;;1.40;;
57832;SDS011;43667;53.036;6.740;2023-02-25T17:38:47;6.28;;;1.67;;
57832;SDS011;43667;53.036;6.740;2023-02-25T17:41:15;8.25;;;1.67;;
57832;SDS011;43667;53.036;6.740;2023-02-25T17:43:43;7.45;;;1.58;;
57832;SDS011;43667;53.036;6.740;2023-02-25T17:46:13;8.55;;;1.60;;
57832;SDS011;43667;53.036;6.740;2023-02-25T17:48:51;7.47;;;1.60;;
57832;SDS011;43667;53.036;6.740;2023-02-25T17:51:26;7.82;;;1.75;;
57832;SDS011;43667;53.036;6.740;2023-02-25T17:54:06;8.00;;;1.70;;
57832;SDS011;43667;53.036;6.740;2023-02-25T17:56:41;5.88;;;0.90;;
57832;SDS011;43667;53.036;6.740;2023-02-25T18:01:51;8.40;;;1.48;;
57832;SDS011;43667;53.036;6.740;2023-02-25T18:04:23;8.23;;;1.67;;
57832;SDS011;43667;53.036;6.740;2023-02-25T18:06:49;10.70;;;1.80;;
57832;SDS011;43667;53.036;6.740;2023-02-25T18:11:59;8.85;;;1.80;;
57832;SDS011;43667;53.036;6.740;2023-02-25T18:17:12;7.32;;;1.80;;
57832;SDS011;43667;53.036;6.740;2023-02-25T18:19:49;7.13;;;1.60;;
57832;SDS011;43667;53.036;6.740;2023-02-25T18:24:51;5.47;;;1.30;;
57832;SDS011;43667;53.036;6.740;2023-02-25T18:29:51;5.03;;;1.13;;
57832;SDS011;43667;53.036;6.740;2023-02-25T18:32:18;7.90;;;1.80;;
57832;SDS011;43667;53.036;6.740;2023-02-25T18:34:43;6.80;;;2.03;;
57832;SDS011;43667;53.036;6.740;2023-02-25T18:37:11;11.93;;;1.42;;
57832;SDS011;43667;53.036;6.740;2023-02-25T18:39:38;7.63;;;1.45;;
57832;SDS011;43667;53.036;6.740;2023-02-25T18:42:04;11.40;;;1.52;;
57832;SDS011;43667;53.036;6.740;2023-02-25T18:44:30;10.02;;;1.38;;
57832;SDS011;43667;53.036;6.740;2023-02-25T18:46:55;8.27;;;1.52;;
57832;SDS011;43667;53.036;6.740;2023-02-25T18:49:21;7.90;;;1.85;;
57832;SDS011;43667;53.036;6.740;2023-02-25T18:51:46;9.68;;;2.60;;
57832;SDS011;43667;53.036;6.740;2023-02-25T18:54:14;4.45;;;0.88;;
57832;SDS011;43667;53.036;6.740;2023-02-25T18:56:41;7.70;;;1.98;;
57832;SDS011;43667;53.036;6.740;2023-02-25T18:59:07;9.20;;;1.80;;
57832;SDS011;43667;53.036;6.740;2023-02-25T19:01:32;8.82;;;1.15;;
57832;SDS011;43667;53.036;6.740;2023-02-25T19:03:58;11.70;;;2.22;;
57832;SDS011;43667;53.036;6.740;2023-02-25T19:06:25;8.20;;;1.30;;
57832;SDS011;43667;53.036;6.740;2023-02-25T19:08:51;8.57;;;1.60;;
57832;SDS011;43667;53.036;6.740;2023-02-25T19:11:25;6.00;;;1.08;;
57832;SDS011;43667;53.036;6.740;2023-02-25T19:13:52;8.75;;;1.73;;
57832;SDS011;43667;53.036;6.740;2023-02-25T19:16:18;5.45;;;1.17;;
57832;SDS011;43667;53.036;6.740;2023-02-25T19:18:45;3.88;;;1.42;;